createdAt,value
2023-03-26T00:00:12.316Z,99470.59
2023-03-26T00:03:16.972Z,99464.78
2023-03-26T00:06:22.938Z,99462.47
2023-03-26T00:09:25.568Z,99470.09
2023-03-26T00:12:28.782Z,99469.53
2023-03-26T00:15:31.992Z,99463.59
2023-03-26T00:18:35.066Z,99464.25
2023-03-26T00:21:37.758Z,99461.09
2023-03-26T00:24:40.759Z,99457.91
2023-03-26T00:27:45.574Z,99450.47
2023-03-26T00:30:49.709Z,99449.78
2023-03-26T00:33:56.041Z,99448.28
2023-03-26T00:37:02.409Z,99450.16
2023-03-26T00:40:07.713Z,99447.06
2023-03-26T00:43:19.104Z,99448.94
2023-03-26T00:46:22.872Z,99460.47
2023-03-26T00:49:30.590Z,99449.38
2023-03-26T00:52:33.459Z,99445.09
2023-03-26T00:55:36.350Z,99455.03
2023-03-26T00:58:39.016Z,99459.97
2023-03-26T01:01:42.277Z,99455.31
2023-03-26T01:04:47.472Z,99448.59
2023-03-26T01:07:51.915Z,99441.03
2023-03-26T01:11:02.680Z,99441.34
2023-03-26T01:14:07.177Z,99445.34
2023-03-26T01:17:09.769Z,99438.28
2023-03-26T01:20:14.911Z,99449.50
2023-03-26T01:23:23.957Z,99437.00
2023-03-26T01:26:39.139Z,99449.53
2023-03-26T01:29:54.176Z,99457.38
2023-03-26T01:33:14.407Z,99460.84
2023-03-26T01:36:21.251Z,99461.13
2023-03-26T01:39:49.580Z,99458.66
2023-03-26T01:42:58.991Z,99464.94
2023-03-26T01:46:05.750Z,99465.53
2023-03-26T01:49:13.282Z,99465.44
2023-03-26T01:52:21.274Z,99465.41
2023-03-26T01:55:30.625Z,99460.06
2023-03-26T01:58:52.636Z,99468.50
2023-03-26T02:02:02.053Z,99461.91
2023-03-26T02:05:13.995Z,99458.72
2023-03-26T02:08:35.779Z,99460.72
2023-03-26T02:11:40.767Z,99452.59
2023-03-26T02:14:44.467Z,99450.19
2023-03-26T02:17:47.103Z,99455.44
2023-03-26T02:20:53.091Z,99462.91
2023-03-26T02:24:03.717Z,99458.13
2023-03-26T02:27:12.395Z,99464.25
2023-03-26T02:30:19.018Z,99470.31
2023-03-26T02:33:22.284Z,99465.72
2023-03-26T02:36:27.247Z,99471.91
2023-03-26T02:39:30.955Z,99470.03
2023-03-26T02:42:33.888Z,99468.37
2023-03-26T02:45:36.928Z,99471.12
2023-03-26T02:48:41.594Z,99468.47
2023-03-26T02:51:44.973Z,99468.69
2023-03-26T02:54:47.896Z,99465.78
2023-03-26T02:57:51.239Z,99459.37
2023-03-26T03:00:57.038Z,99456.69
2023-03-26T03:04:01.556Z,99452.44
2023-03-26T03:07:05.775Z,99444.69
2023-03-26T03:10:21.856Z,99449.28
2023-03-26T03:13:27.996Z,99455.59
2023-03-26T03:16:31.273Z,99466.66
2023-03-26T03:19:34.442Z,99463.66
2023-03-26T03:22:38.297Z,99456.16
2023-03-26T03:25:41.251Z,99467.75
2023-03-26T03:28:45.284Z,99463.31
2023-03-26T03:31:49.829Z,99460.00
2023-03-26T03:34:53.231Z,99460.91
2023-03-26T03:37:59.711Z,99477.41
2023-03-26T03:41:04.351Z,99466.59
2023-03-26T03:44:07.991Z,99453.13
2023-03-26T03:47:13.736Z,99449.91
2023-03-26T03:50:16.567Z,99461.53
2023-03-26T03:53:26.262Z,99465.00
2023-03-26T03:56:29.208Z,99469.53
2023-03-26T03:59:33.073Z,99465.06
2023-03-26T04:02:38.289Z,99469.47
2023-03-26T04:05:41.333Z,99475.66
2023-03-26T04:08:43.891Z,99469.53
2023-03-26T04:11:46.834Z,99467.19
2023-03-26T04:14:51.879Z,99469.91
2023-03-26T04:17:54.841Z,99465.53
2023-03-26T04:21:02.460Z,99473.78
2023-03-26T04:24:07.238Z,99479.22
2023-03-26T04:27:17.768Z,99484.53
2023-03-26T04:30:21.230Z,99494.72
2023-03-26T04:33:25.056Z,99493.91
2023-03-26T04:36:29.671Z,99494.72
2023-03-26T04:39:34.280Z,99488.75
2023-03-26T04:42:46.358Z,99484.31
2023-03-26T04:45:50.151Z,99479.97
2023-03-26T04:48:56.126Z,99472.38
2023-03-26T04:51:59.254Z,99479.19
2023-03-26T04:55:37.216Z,99490.47
2023-03-26T04:58:41.235Z,99484.97
2023-03-26T05:01:46.102Z,99482.91
2023-03-26T05:04:50.052Z,99480.25
2023-03-26T05:07:53.174Z,99482.50
2023-03-26T05:10:56.887Z,99482.50
2023-03-26T05:14:02.364Z,99477.22
2023-03-26T05:17:10.993Z,99474.97
2023-03-26T05:20:20.945Z,99471.06
2023-03-26T05:23:23.789Z,99475.59
2023-03-26T05:26:27.493Z,99470.56
2023-03-26T05:29:30.164Z,99476.06
2023-03-26T05:32:34.684Z,99477.66
2023-03-26T05:35:37.528Z,99479.38
2023-03-26T05:38:47.329Z,99478.75
2023-03-26T05:41:52.885Z,99470.66
2023-03-26T05:44:56.391Z,99469.09
2023-03-26T05:47:59.445Z,99460.72
2023-03-26T05:51:02.727Z,99469.53
2023-03-26T05:54:05.957Z,99476.84
2023-03-26T05:57:12.484Z,99477.22
2023-03-26T06:00:21.867Z,99471.91
2023-03-26T06:03:27.159Z,99484.66
2023-03-26T06:06:32.297Z,99474.13
2023-03-26T06:09:40.912Z,99481.50
2023-03-26T06:12:43.549Z,99472.50
2023-03-26T06:15:46.831Z,99474.22
2023-03-26T06:18:56.348Z,99465.03
2023-03-26T06:22:01.779Z,99464.28
2023-03-26T06:25:05.260Z,99453.47
2023-03-26T06:28:10.846Z,99461.31
2023-03-26T06:31:14.343Z,99469.44
2023-03-26T06:34:17.907Z,99462.66
2023-03-26T06:37:20.552Z,99466.34
2023-03-26T06:40:24.984Z,99462.53
2023-03-26T06:43:28.176Z,99461.66
2023-03-26T06:46:31.537Z,99460.97
2023-03-26T06:49:38.184Z,99466.06
2023-03-26T06:52:41.851Z,99471.06
2023-03-26T06:55:44.636Z,99460.50
2023-03-26T06:58:48.043Z,99466.78
2023-03-26T07:01:53.549Z,99468.09
2023-03-26T07:05:13.861Z,99468.22
2023-03-26T07:08:26.583Z,99462.50
2023-03-26T07:11:33.614Z,99465.56
2023-03-26T07:14:39.832Z,99461.31
2023-03-26T07:17:42.972Z,99465.94
2023-03-26T07:20:46.534Z,99455.44
2023-03-26T07:23:49.890Z,99457.78
2023-03-26T07:27:07.204Z,99454.63
2023-03-26T07:30:20.480Z,99451.53
2023-03-26T07:33:37.789Z,99450.69
2023-03-26T07:36:49.382Z,99451.41
2023-03-26T07:40:08.088Z,99453.63
2023-03-26T07:43:23.232Z,99460.28
2023-03-26T07:46:36.995Z,99457.97
2023-03-26T07:49:43.391Z,99451.06
2023-03-26T07:52:49.740Z,99460.37
2023-03-26T07:56:08.192Z,99457.22
2023-03-26T07:59:29.736Z,99456.78
2023-03-26T08:02:45.044Z,99454.38
2023-03-26T08:06:00.660Z,99446.41
2023-03-26T08:09:42.794Z,99450.41
2023-03-26T08:13:04.529Z,99438.25
2023-03-26T08:16:24.106Z,99440.16
2023-03-26T08:19:51.238Z,99432.41
2023-03-26T08:23:17.041Z,99436.06
2023-03-26T08:26:45.448Z,99435.31
2023-03-26T08:30:02.252Z,99443.06
2023-03-26T08:33:11.318Z,99429.72
2023-03-26T08:36:13.848Z,99431.94
2023-03-26T08:39:18.224Z,99440.03
2023-03-26T08:43:07.288Z,99443.63
2023-03-26T08:46:34.742Z,99432.31
2023-03-26T08:50:12.770Z,99431.88
2023-03-26T08:53:34.883Z,99435.69
2023-03-26T08:56:59.307Z,99439.25
2023-03-26T09:00:13.624Z,99426.91
2023-03-26T09:03:19.740Z,99436.78
2023-03-26T09:06:39.372Z,99423.34
2023-03-26T09:09:53.771Z,99414.84
2023-03-26T09:13:14.435Z,99428.31
2023-03-26T09:16:35.604Z,99414.41
2023-03-26T09:19:54.022Z,99416.16
2023-03-26T09:23:14.979Z,99418.28
2023-03-26T09:26:24.898Z,99416.78
2023-03-26T09:29:46.465Z,99413.84
2023-03-26T09:33:09.850Z,99418.03
2023-03-26T09:36:18.601Z,99412.66
2023-03-26T09:39:41.650Z,99414.53
2023-03-26T09:42:54.675Z,99412.69
2023-03-26T09:46:10.091Z,99411.91
2023-03-26T09:49:51.733Z,99405.69
2023-03-26T09:53:16.415Z,99402.06
2023-03-26T09:56:39.895Z,99395.09
2023-03-26T09:59:57.784Z,99388.81
2023-03-26T10:03:26.784Z,99389.06
2023-03-26T10:06:59.939Z,99385.94
2023-03-26T10:10:09.217Z,99377.09
2023-03-26T10:13:34.043Z,99363.91
2023-03-26T10:16:51.385Z,99356.69
2023-03-26T10:20:19.841Z,99342.41
2023-03-26T10:24:01.206Z,99342.84
2023-03-26T10:27:15.385Z,99339.53
2023-03-26T10:30:27.304Z,99344.87
2023-03-26T10:33:57.375Z,99334.62
2023-03-26T10:37:11.955Z,99339.34
2023-03-26T10:40:37.051Z,99336.66
2023-03-26T10:44:07.399Z,99333.59
2023-03-26T10:47:31.638Z,99330.28
2023-03-26T10:51:18.635Z,99340.38
2023-03-26T10:54:30.909Z,99341.34
2023-03-26T10:57:38.184Z,99333.38
2023-03-26T11:00:53.756Z,99325.59
2023-03-26T11:04:05.800Z,99322.94
2023-03-26T11:07:20.837Z,99329.19
2023-03-26T11:10:59.246Z,99319.38
2023-03-26T11:14:27.829Z,99309.88
2023-03-26T11:18:13.759Z,99302.47
2023-03-26T11:21:24.982Z,99283.91
2023-03-26T11:24:52.101Z,99279.94
2023-03-26T11:27:58.544Z,99285.91
2023-03-26T11:31:41.783Z,99277.50
2023-03-26T11:35:05.509Z,99274.44
2023-03-26T11:42:11.150Z,99246.63
2023-03-26T11:45:18.221Z,99239.22
2023-03-26T11:48:40.617Z,99234.50
2023-03-26T11:51:44.250Z,99215.78
2023-03-26T11:54:50.626Z,99214.06
2023-03-26T11:57:57.410Z,99214.66
2023-03-26T12:01:04.534Z,99203.31
2023-03-26T12:04:13.675Z,99208.13
2023-03-26T12:07:34.700Z,99193.06
2023-03-26T12:10:39.583Z,99198.31
2023-03-26T12:13:52.222Z,99187.44
2023-03-26T12:17:11.594Z,99173.88
2023-03-26T12:20:26.768Z,99167.31
2023-03-26T12:23:44.911Z,99162.00
2023-03-26T12:26:50.358Z,99144.31
2023-03-26T12:30:00.284Z,99147.84
2023-03-26T12:33:28.290Z,99138.19
2023-03-26T12:36:33.385Z,99134.91
2023-03-26T12:40:08.609Z,99125.53
2023-03-26T12:44:51.112Z,99116.25
2023-03-26T12:47:57.494Z,99119.13
2023-03-26T12:50:15.071Z,99102.13
2023-03-26T12:53:29.156Z,99099.13
2023-03-26T12:57:12.464Z,99087.13
2023-03-26T13:00:39.994Z,99091.12
2023-03-26T13:04:01.713Z,99083.09
2023-03-26T13:07:27.307Z,99083.19
2023-03-26T13:10:56.584Z,99083.97
2023-03-26T13:14:27.754Z,99072.19
2023-03-26T13:17:37.256Z,99060.81
2023-03-26T13:20:47.684Z,99052.56
2023-03-26T13:24:09.318Z,99053.06
2023-03-26T13:27:17.877Z,99039.72
2023-03-26T13:30:39.514Z,99039.97
2023-03-26T13:34:01.909Z,99023.94
2023-03-26T13:37:42.407Z,99024.66
2023-03-26T13:41:12.435Z,99010.16
2023-03-26T13:44:23.237Z,98999.94
2023-03-26T13:47:28.676Z,99004.41
2023-03-26T13:50:39.116Z,99004.25
2023-03-26T13:53:47.743Z,99009.56
2023-03-26T13:56:57.551Z,98999.28
2023-03-26T14:00:21.543Z,99001.06
2023-03-26T14:03:30.168Z,98989.91
2023-03-26T14:06:34.005Z,98984.06
2023-03-26T14:09:37.059Z,98975.41
2023-03-26T14:12:52.703Z,98972.69
2023-03-26T14:16:27.349Z,98970.22
2023-03-26T14:19:51.123Z,98953.41
2023-03-26T14:22:57.402Z,98959.75
2023-03-26T14:26:18.901Z,98959.28
2023-03-26T14:29:24.318Z,98951.38
2023-03-26T14:32:33.419Z,98946.41
2023-03-26T14:35:39.270Z,98938.56
2023-03-26T14:39:05.723Z,98935.78
2023-03-26T14:42:19.309Z,98933.25
2023-03-26T14:45:34.877Z,98926.63
2023-03-26T14:49:03.005Z,98913.91
2023-03-26T14:52:06.026Z,98916.84
2023-03-26T14:55:17.057Z,98912.78
2023-03-26T14:58:57.931Z,98910.91
2023-03-26T15:02:22.292Z,98902.84
2023-03-26T15:05:46.572Z,98900.03
2023-03-26T15:09:26.634Z,98888.09
2023-03-26T15:12:48.296Z,98878.38
2023-03-26T15:16:03.407Z,98873.47
2023-03-26T15:19:36.699Z,98861.75
2023-03-26T15:23:16.889Z,98860.59
2023-03-26T15:26:38.266Z,98867.84
2023-03-26T15:30:03.065Z,98857.41
2023-03-26T15:33:51.558Z,98861.88
2023-03-26T15:37:18.748Z,98856.97
2023-03-26T15:40:49.640Z,98849.34
2023-03-26T15:44:23.076Z,98842.06
2023-03-26T15:47:41.750Z,98837.38
2023-03-26T15:50:59.540Z,98844.38
2023-03-26T15:54:22.692Z,98846.72
2023-03-26T15:57:27.517Z,98839.81
2023-03-26T16:00:35.409Z,98843.19
2023-03-26T16:03:55.674Z,98836.59
2023-03-26T16:07:16.944Z,98824.63
2023-03-26T16:10:34.045Z,98809.31
2023-03-26T16:13:50.712Z,98809.69
2023-03-26T16:16:55.173Z,98803.78
2023-03-26T16:20:23.018Z,98796.78
2023-03-26T16:23:30.610Z,98793.28
2023-03-26T16:27:00.825Z,98778.91
2023-03-26T16:30:30.682Z,98779.44
2023-03-26T16:33:39.060Z,98766.72
2023-03-26T16:36:43.876Z,98771.41
2023-03-26T16:39:47.336Z,98771.16
2023-03-26T16:42:50.369Z,98777.34
2023-03-26T16:46:07.938Z,98765.87
2023-03-26T16:49:42.626Z,98775.03
2023-03-26T16:52:52.054Z,98771.03
2023-03-26T16:56:21.532Z,98771.97
2023-03-26T17:00:05.824Z,98777.50
2023-03-26T17:03:38.962Z,98768.66
2023-03-26T17:07:01.838Z,98769.97
2023-03-26T17:10:19.510Z,98772.47
2023-03-26T17:13:28.318Z,98775.59
2023-03-26T17:16:35.980Z,98771.97
2023-03-26T17:19:49.176Z,98770.00
2023-03-26T17:23:08.166Z,98781.34
2023-03-26T17:26:31.596Z,98775.03
2023-03-26T17:29:51.167Z,98773.84
2023-03-26T17:33:27.232Z,98778.84
2023-03-26T17:36:39.688Z,98780.72
2023-03-26T17:39:43.511Z,98774.75
2023-03-26T17:43:11.538Z,98773.53
2023-03-26T17:46:21.049Z,98774.56
2023-03-26T17:49:31.281Z,98776.00
2023-03-26T17:52:41.956Z,98770.88
2023-03-26T17:55:45.849Z,98772.97
2023-03-26T17:58:58.711Z,98773.97
2023-03-26T18:02:26.455Z,98766.59
2023-03-26T18:05:30.929Z,98765.59
2023-03-26T18:08:40.796Z,98764.16
2023-03-26T18:12:02.364Z,98763.53
2023-03-26T18:15:29.813Z,98767.63
2023-03-26T18:18:43.573Z,98776.47
2023-03-26T18:21:50.310Z,98774.63
2023-03-26T18:24:58.895Z,98771.56
2023-03-26T18:28:02.462Z,98765.38
2023-03-26T18:31:10.079Z,98758.63
2023-03-26T18:34:18.719Z,98758.84
2023-03-26T18:37:24.799Z,98753.91
2023-03-26T18:40:33.336Z,98751.22
2023-03-26T18:43:43.554Z,98745.06
2023-03-26T18:46:48.253Z,98740.34
2023-03-26T18:49:56.908Z,98741.56
2023-03-26T18:53:00.770Z,98741.59
2023-03-26T18:56:19.543Z,98729.25
2023-03-26T18:59:41.009Z,98710.78
2023-03-26T19:02:49.004Z,98718.78
2023-03-26T19:05:56.576Z,98716.12
2023-03-26T19:09:16.338Z,98701.31
2023-03-26T19:12:33.203Z,98695.19
2023-03-26T19:15:36.704Z,98689.22
2023-03-26T19:18:40.919Z,98693.50
2023-03-26T19:21:49.486Z,98689.63
2023-03-26T19:24:57.681Z,98682.84
2023-03-26T19:28:01.223Z,98693.09
2023-03-26T19:31:15.115Z,98681.22
2023-03-26T19:34:30.106Z,98681.00
2023-03-26T19:37:33.184Z,98676.69
2023-03-26T19:40:36.807Z,98670.75
2023-03-26T19:43:42.510Z,98666.25
2023-03-26T19:46:53.906Z,98661.94
2023-03-26T19:50:02.490Z,98650.22
2023-03-26T19:53:16.589Z,98644.69
2023-03-26T19:56:21.922Z,98640.16
2023-03-26T19:59:25.534Z,98635.44
2023-03-26T20:02:28.598Z,98627.25
2023-03-26T20:05:33.976Z,98621.50
2023-03-26T20:08:37.088Z,98605.28
2023-03-26T20:11:40.909Z,98600.97
2023-03-26T20:14:45.294Z,98604.06
2023-03-26T20:17:52.410Z,98588.41
2023-03-26T20:20:57.596Z,98576.94
2023-03-26T20:24:01.692Z,98583.09
2023-03-26T20:27:04.532Z,98561.53
2023-03-26T20:30:09.201Z,98563.19
2023-03-26T20:33:22.461Z,98546.78
2023-03-26T20:36:33.110Z,98543.34
2023-03-26T20:39:37.803Z,98531.00
2023-03-26T20:42:41.641Z,98528.50
2023-03-26T20:45:45.688Z,98523.81
2023-03-26T20:48:49.443Z,98528.13
2023-03-26T20:51:52.716Z,98518.25
2023-03-26T20:54:56.088Z,98506.78
2023-03-26T20:57:58.727Z,98515.19
2023-03-26T21:01:02.241Z,98500.25
2023-03-26T21:04:05.884Z,98504.97
2023-03-26T21:07:17.780Z,98505.16
2023-03-26T21:10:23.004Z,98500.06
2023-03-26T21:13:46.087Z,98493.47
2023-03-26T21:16:49.018Z,98498.22
2023-03-26T21:19:52.214Z,98501.25
2023-03-26T21:23:13.208Z,98501.88
2023-03-26T21:26:42.795Z,98497.16
2023-03-26T21:29:45.683Z,98494.50
2023-03-26T21:32:49.032Z,98488.78
2023-03-26T21:35:51.950Z,98490.00
2023-03-26T21:38:56.102Z,98486.94
2023-03-26T21:42:04.951Z,98488.56
2023-03-26T21:45:09.394Z,98512.56
2023-03-26T21:48:12.701Z,98548.59
2023-03-26T21:51:20.876Z,98543.72
2023-03-26T21:54:24.713Z,98550.03
2023-03-26T21:57:55.598Z,98552.06
2023-03-26T22:01:19.905Z,98549.81
2023-03-26T22:04:32.255Z,98554.31
2023-03-26T22:07:42.245Z,98539.50
2023-03-26T22:10:45.764Z,98539.88
2023-03-26T22:13:48.759Z,98537.22
2023-03-26T22:16:51.682Z,98534.72
2023-03-26T22:19:56.097Z,98526.66
2023-03-26T22:23:00.554Z,98516.84
2023-03-26T22:26:04.669Z,98517.34
2023-03-26T22:29:08.316Z,98508.22
2023-03-26T22:32:11.194Z,98506.78
2023-03-26T22:35:14.548Z,98498.63
2023-03-26T22:38:17.200Z,98494.72
2023-03-26T22:41:21.761Z,98493.88
2023-03-26T22:44:24.363Z,98490.00
2023-03-26T22:47:27.268Z,98493.06
2023-03-26T22:50:30.080Z,98484.47
2023-03-26T22:53:33.075Z,98492.66
2023-03-26T22:56:36.383Z,98493.06
2023-03-26T22:59:39.256Z,98484.84
2023-03-26T23:02:44.946Z,98494.44
2023-03-26T23:05:58.213Z,98489.72
2023-03-26T23:09:01.080Z,98479.91
2023-03-26T23:12:04.430Z,98482.50
2023-03-26T23:15:08.077Z,98478.25
2023-03-26T23:18:13.995Z,98472.53
2023-03-26T23:21:19.344Z,98476.66
2023-03-26T23:24:22.553Z,98478.09
2023-03-26T23:27:25.402Z,98457.62
2023-03-26T23:30:29.794Z,98461.09
2023-03-26T23:33:35.382Z,98447.19
2023-03-26T23:36:38.358Z,98446.34
2023-03-26T23:39:41.097Z,98444.91
2023-03-26T23:42:44.137Z,98442.47
2023-03-26T23:45:47.929Z,98441.44
2023-03-26T23:48:51.655Z,98430.59
2023-03-26T23:51:54.565Z,98416.06
2023-03-26T23:54:59.811Z,98411.75
2023-03-26T23:58:03.357Z,98404.16
